Lanzarote > ESTACION METEOROLÓGICA Órzola - Haría

DATOS ACTUALES Online

Ultima actulizacion 14 minutos

21.4 ºC

Temperatura

89

Humedad (%)

1012.11

Presión (mb)

3.7

Precipitación (mm)

11.8 SO

Viento (Km/h)

DATOS DIARIOS

Temperatura últimas 24 horas (ºC)

Humedad últimas 24 horas (%)

Presión atmosférica últimas 24 horas (mb)

Precipitaciones últimas 23 horas (mm)

Viento últimas 24 horas (Km/h)

Hora Temperatura (°C) ºC Precipitación (mm) mm Presión (mb) mb Humedad (%) % Viento (Km/h) km/h
25 - 00:00 23.3 0 1014 79 23.3 N
25 - 01:00 23.3 0 1014 80 21.6 N
25 - 02:00 23.3 0 1013 80 20.3 N
25 - 03:00 23.2 0 1013 81 23.3 N
25 - 04:00 23.2 0 1012 81 22.2 N
25 - 05:00 23.1 0 1012 82 20.6 N
25 - 06:00 23.1 0 1013 81 22.8 N
25 - 07:00 23.2 0 1013 80 18.3 N
25 - 08:00 23.2 0 1014 81 22.2 NW
25 - 09:00 23.5 0 1014 81 19.8 N
25 - 10:00 23.3 0 1014 82 30.6 N
25 - 11:00 23.4 0.1 1015 81 18.4 N
25 - 12:00 23.5 0.2 1015 82 18.5 N
25 - 13:00 23.1 0.4 1014 84 23.3 N
25 - 14:00 22.7 0.8 1013 86 30.1 N
25 - 15:00 22.7 1 1013 83 27.5 N
25 - 16:00 22.6 1.4 1013 85 26.1 N
25 - 17:00 22.1 1.9 1013 85 24.6 NO
25 - 18:00 22.1 2.4 1013 88 15.9 NO
25 - 19:00 22 2.8 1013 88 12.1 NO
25 - 20:00 21.6 3.3 1014 89 14.5 O
25 - 21:00 21.5 3.5 1014 90 14.3 O
25 - 22:00 21.2 3.6 1013 90 14.1 O
25 - 23:00 21.3 3.7 1013 90 11.3 SO
26 - 00:00 21.4 3.7 1012 89 11.8 SO
Apalmet utiliza cookies propias y de terceros para mejorar la usabilidad y la experiencia web. Política de cookies.